Time;durP1;ratioP1;P1;durP2;ratioP2;P2;SDS_P1;SDS_P2;PMS_P1;PMS_P2;Temp;Humidity;BMP_temperature;BMP_pressure;BME280_temperature;BME280_humidity;BME280_pressure;Samples;Min_cycle;Max_cycle;Signal;HPM_P1;HPM_P2
2022/09/21 00:01:51;;;;;;;10.53;2.73;;;20.70;69.50;;;;;;5031075;28;20282;-76
2022/09/21 00:04:18;;;;;;;12.50;3.17;;;20.60;69.60;;;;;;5032771;28;20674;-74
2022/09/21 00:06:46;;;;;;;21.83;3.10;;;20.70;70.20;;;;;;5030202;28;20228;-77
2022/09/21 00:09:13;;;;;;;19.87;3.57;;;21.00;69.50;;;;;;5027987;28;20284;-76
2022/09/21 00:11:41;;;;;;;17.93;3.03;;;20.90;69.10;;;;;;5030185;28;20761;-74
2022/09/21 00:14:11;;;;;;;21.17;2.17;;;20.90;69.30;;;;;;5032305;28;20216;-75
2022/09/21 00:16:48;;;;;;;11.60;2.90;;;21.10;68.10;;;;;;5026498;28;20195;-76
2022/09/21 00:19:24;;;;;;;9.17;2.20;;;21.20;68.40;;;;;;5030721;28;20203;-77
2022/09/21 00:21:55;;;;;;;11.67;2.40;;;20.80;68.60;;;;;;5023425;28;20230;-72
2022/09/21 00:24:22;;;;;;;13.33;3.20;;;20.60;69.70;;;;;;5025625;28;20226;-76
2022/09/21 00:26:49;;;;;;;11.90;2.57;;;20.50;69.20;;;;;;5035046;28;20189;-74
2022/09/21 00:29:17;;;;;;;13.07;2.77;;;20.60;69.70;;;;;;5028308;28;20192;-74
2022/09/21 00:31:44;;;;;;;10.97;2.40;;;20.80;68.60;;;;;;5031939;28;20234;-73
2022/09/21 00:34:11;;;;;;;16.57;2.57;;;20.60;69.10;;;;;;5031205;28;20330;-70
2022/09/21 00:36:39;;;;;;;14.40;2.83;;;20.60;69.20;;;;;;5030403;28;21976;-71
2022/09/21 00:39:06;;;;;;;19.97;3.00;;;20.70;69.70;;;;;;5027031;28;20203;-71
2022/09/21 00:41:34;;;;;;;10.63;2.77;;;20.80;68.90;;;;;;5029558;28;20651;-70
2022/09/21 00:44:25;;;;;;;14.77;2.87;;;20.80;68.30;;;;;;5028881;28;20241;-74
2022/09/21 00:46:55;;;;;;;15.63;3.13;;;20.70;68.30;;;;;;5025304;28;20179;-68
2022/09/21 00:49:24;;;;;;;14.37;2.90;;;20.70;69.00;;;;;;5020264;28;20695;-70
2022/09/21 00:51:52;;;;;;;11.43;2.67;;;21.00;68.50;;;;;;5031767;28;20169;-70
2022/09/21 00:54:29;;;;;;;11.30;2.87;;;21.00;66.90;;;;;;5028543;28;20220;-72
2022/09/21 00:57:00;;;;;;;19.10;2.60;;;20.90;67.70;;;;;;5029785;28;20577;-70
2022/09/21 00:59:30;;;;;;;10.30;2.87;;;20.90;67.90;;;;;;5030839;28;20185;-73
2022/09/21 01:01:59;;;;;;;12.83;2.60;;;20.80;68.30;;;;;;5032369;28;20183;-73
2022/09/21 01:04:27;;;;;;;10.33;2.23;;;20.70;68.10;;;;;;5030693;28;20177;-71
2022/09/21 01:06:57;;;;;;;10.70;2.83;;;20.60;68.60;;;;;;5030630;28;20714;-74
2022/09/21 01:09:24;;;;;;;15.83;2.97;;;20.50;69.30;;;;;;5032320;28;20246;-72
2022/09/21 01:12:23;;;;;;;14.73;2.97;;;20.70;69.20;;;;;;5027780;28;20177;-72
2022/09/21 01:15:09;;;;;;;16.60;2.83;;;20.80;69.50;;;;;;5036607;28;20315;-72
2022/09/21 01:18:14;;;;;;;17.03;3.07;;;20.80;69.30;;;;;;5026315;28;20320;-71
2022/09/21 01:20:56;;;;;;;12.83;3.03;;;20.70;69.60;;;;;;4977443;28;20369;-74
2022/09/21 01:24:01;;;;;;;14.40;2.73;;;20.80;69.00;;;;;;5030055;28;20259;-72
2022/09/21 01:26:47;;;;;;;12.20;2.80;;;20.80;69.10;;;;;;5043197;28;20196;-69
2022/09/21 01:29:25;;;;;;;15.27;2.83;;;20.70;69.70;;;;;;5037632;28;20179;-71
2022/09/21 01:32:06;;;;;;;10.23;2.47;;;20.60;69.80;;;;;;5035602;28;20188;-77
2022/09/21 01:34:53;;;;;;;17.00;3.20;;;20.60;69.50;;;;;;5035319;28;20224;-72
2022/09/21 01:37:32;;;;;;;13.93;2.90;;;20.60;70.10;;;;;;5036345;28;20251;-71
2022/09/21 01:40:07;;;;;;;17.47;2.93;;;20.50;70.40;;;;;;5041084;28;20176;-70
2022/09/21 01:42:37;;;;;;;17.23;2.90;;;20.60;70.00;;;;;;5058278;28;20171;-74
2022/09/21 01:45:06;;;;;;;14.63;2.50;;;20.70;69.80;;;;;;5035405;28;20187;-77
2022/09/21 01:47:36;;;;;;;17.50;2.90;;;20.60;70.10;;;;;;5039504;28;20173;-70
2022/09/21 01:50:08;;;;;;;14.23;2.73;;;20.60;69.70;;;;;;5025983;28;20543;-71
2022/09/21 01:53:02;;;;;;;18.10;2.83;;;20.80;69.80;;;;;;5043192;28;20177;-73
2022/09/21 01:56:00;;;;;;;11.60;2.27;;;20.80;69.90;;;;;;5039342;28;20184;-71
2022/09/21 01:58:52;;;;;;;12.90;2.93;;;20.80;69.90;;;;;;5035752;28;20195;-70
2022/09/21 02:01:24;;;;;;;13.83;3.10;;;20.70;70.00;;;;;;5033806;28;20537;-69
2022/09/21 02:03:59;;;;;;;14.63;2.70;;;20.80;70.30;;;;;;5038862;28;20530;-70
2022/09/21 02:06:29;;;;;;;16.83;2.93;;;20.70;70.00;;;;;;5037746;28;20658;-72
2022/09/21 02:08:57;;;;;;;23.70;9.60;;;20.60;70.50;;;;;;5038531;28;20168;-71
2022/09/21 02:11:24;;;;;;;13.47;2.60;;;20.40;70.60;;;;;;5038186;28;20189;-71
2022/09/21 02:13:54;;;;;;;19.37;2.83;;;20.30;70.70;;;;;;5037931;28;20239;-70
2022/09/21 02:17:01;;;;;;;13.43;2.70;;;20.50;71.20;;;;;;5037706;28;20184;-73
2022/09/21 02:19:45;;;;;;;13.30;2.50;;;20.70;70.60;;;;;;4958575;28;20634;-71
2022/09/21 02:22:53;;;;;;;16.07;2.80;;;20.80;70.30;;;;;;5021747;28;20182;-71
2022/09/21 02:25:36;;;;;;;17.27;3.37;;;20.80;69.50;;;;;;5022719;28;20646;-71
2022/09/21 02:28:26;;;;;;;28.40;2.97;;;20.90;69.50;;;;;;5032368;28;20182;-70
2022/09/21 02:31:20;;;;;;;11.43;2.33;;;20.90;69.10;;;;;;5030915;28;20192;-69
2022/09/21 02:33:56;;;;;;;14.20;2.90;;;21.10;68.70;;;;;;5030106;28;20649;-68
2022/09/21 02:36:55;;;;;;;19.33;2.70;;;21.00;68.70;;;;;;5026121;28;20196;-70
2022/09/21 02:39:49;;;;;;;13.43;2.80;;;21.00;68.30;;;;;;5028288;28;20204;-70
2022/09/21 02:42:27;;;;;;;8.47;2.40;;;21.20;68.30;;;;;;5022717;28;20659;-70
2022/09/21 02:45:21;;;;;;;13.87;2.50;;;21.10;68.60;;;;;;5030584;28;20203;-71
2022/09/21 02:48:02;;;;;;;14.70;2.50;;;20.90;69.10;;;;;;5030722;28;20212;-70
2022/09/21 02:50:39;;;;;;;10.57;2.60;;;20.90;69.40;;;;;;5031633;28;20212;-69
2022/09/21 02:53:09;;;;;;;15.40;2.47;;;20.90;69.70;;;;;;5031728;28;20206;-71
2022/09/21 02:55:37;;;;;;;11.27;2.20;;;20.90;69.30;;;;;;5032828;28;20185;-71
2022/09/21 02:58:08;;;;;;;14.07;2.53;;;20.80;69.60;;;;;;5030543;28;20181;-71
2022/09/21 03:00:36;;;;;;;16.63;3.57;;;20.80;69.40;;;;;;5033736;28;20177;-71
2022/09/21 03:03:23;;;;;;;16.63;2.90;;;20.70;69.30;;;;;;5033779;28;20169;-73
2022/09/21 03:05:53;;;;;;;15.33;2.57;;;20.70;69.80;;;;;;5031879;28;20185;-71
2022/09/21 03:08:21;;;;;;;15.47;2.83;;;20.60;70.00;;;;;;5031749;28;20212;-71
2022/09/21 03:10:49;;;;;;;12.33;2.53;;;20.70;69.60;;;;;;5031990;28;20546;-72
2022/09/21 03:13:17;;;;;;;12.97;2.90;;;20.70;69.80;;;;;;5030842;28;20758;-75
2022/09/21 03:15:46;;;;;;;12.47;3.00;;;20.60;70.30;;;;;;5033515;28;20612;-69
2022/09/21 03:18:14;;;;;;;14.27;2.50;;;20.60;70.50;;;;;;5030996;28;20180;-68
2022/09/21 03:20:46;;;;;;;8.53;2.40;;;20.50;71.10;;;;;;5032524;28;20180;-74
2022/09/21 03:23:14;;;;;;;10.47;2.77;;;20.30;71.30;;;;;;5033477;28;20176;-72
2022/09/21 03:25:45;;;;;;;12.93;2.93;;;20.30;71.80;;;;;;5030505;28;20551;-76
2022/09/21 03:28:13;;;;;;;12.07;2.50;;;20.50;71.50;;;;;;5030549;28;20199;-75
2022/09/21 03:30:41;;;;;;;15.33;3.30;;;20.30;72.20;;;;;;5029252;28;20176;-74
2022/09/21 03:33:09;;;;;;;13.13;3.23;;;20.40;72.50;;;;;;5032372;28;20186;-75
2022/09/21 03:35:37;;;;;;;17.17;3.17;;;20.30;72.80;;;;;;5031972;28;20179;-73
2022/09/21 03:38:04;;;;;;;15.43;2.90;;;20.30;72.70;;;;;;5032670;28;20211;-70
2022/09/21 03:40:33;;;;;;;16.37;3.57;;;20.30;73.30;;;;;;5047165;28;20185;-72
2022/09/21 03:43:00;;;;;;;16.87;3.30;;;20.20;73.30;;;;;;5032922;28;20181;-72
2022/09/21 03:45:27;;;;;;;15.00;3.23;;;20.20;73.60;;;;;;5033485;28;20204;-71
2022/09/21 03:47:56;;;;;;;17.43;3.23;;;20.10;73.10;;;;;;5033751;28;20189;-72
2022/09/21 03:50:27;;;;;;;20.77;3.87;;;20.10;73.70;;;;;;5030435;28;20719;-73
2022/09/21 03:52:55;;;;;;;26.40;3.67;;;19.90;74.50;;;;;;5029737;28;20196;-71
2022/09/21 03:55:23;;;;;;;13.63;3.03;;;20.00;74.90;;;;;;5032662;28;20262;-72
2022/09/21 03:57:53;;;;;;;19.63;3.70;;;19.90;75.00;;;;;;5032400;28;20231;-73
2022/09/21 04:00:21;;;;;;;23.60;3.67;;;19.80;75.40;;;;;;5032775;28;20197;-68
2022/09/21 04:02:49;;;;;;;22.43;3.77;;;19.80;75.50;;;;;;5032104;28;20195;-71
2022/09/21 04:05:17;;;;;;;19.67;3.63;;;19.90;75.50;;;;;;5033348;28;20187;-72
2022/09/21 04:07:45;;;;;;;20.27;2.77;;;19.90;75.50;;;;;;5032330;28;20224;-67
2022/09/21 04:10:15;;;;;;;17.47;3.40;;;19.80;75.20;;;;;;5030988;28;20184;-67
2022/09/21 04:12:43;;;;;;;11.97;3.07;;;19.80;75.60;;;;;;5032388;28;20188;-68
2022/09/21 04:15:18;;;;;;;20.57;3.57;;;19.80;75.10;;;;;;5032722;28;20614;-71
2022/09/21 04:17:52;;;;;;;14.67;2.87;;;19.90;75.40;;;;;;5016195;28;20189;-71
2022/09/21 04:20:20;;;;;;;19.23;3.70;;;19.80;75.40;;;;;;5024114;28;20208;-72
2022/09/21 04:22:48;;;;;;;13.70;3.50;;;19.80;75.70;;;;;;5032555;28;20192;-70
2022/09/21 04:25:15;;;;;;;18.03;3.37;;;19.80;75.80;;;;;;5027948;28;20188;-73
2022/09/21 04:27:43;;;;;;;23.67;4.17;;;19.80;75.60;;;;;;5032782;28;20647;-68
2022/09/21 04:30:15;;;;;;;17.67;3.70;;;19.80;76.00;;;;;;5018401;28;20176;-68
2022/09/21 04:32:43;;;;;;;19.43;3.53;;;19.80;76.00;;;;;;5031065;28;20635;-71
2022/09/21 04:35:11;;;;;;;14.83;3.90;;;19.70;76.00;;;;;;5031864;28;20211;-68
2022/09/21 04:37:38;;;;;;;22.33;4.03;;;19.70;76.20;;;;;;5027744;28;20293;-69
2022/09/21 04:40:06;;;;;;;18.43;4.17;;;19.70;76.40;;;;;;5032514;28;20203;-71
2022/09/21 04:42:33;;;;;;;20.60;4.47;;;19.70;76.50;;;;;;5032362;28;20545;-69
2022/09/21 04:45:01;;;;;;;14.97;3.30;;;19.60;76.70;;;;;;5028985;28;20176;-69
2022/09/21 04:47:30;;;;;;;18.30;3.90;;;19.60;76.70;;;;;;5032062;28;20528;-71
2022/09/21 04:49:57;;;;;;;17.63;3.73;;;19.60;77.00;;;;;;5032622;28;20530;-70
2022/09/21 04:52:25;;;;;;;20.73;3.83;;;19.60;77.00;;;;;;5031758;28;20267;-70
2022/09/21 04:54:52;;;;;;;22.20;4.17;;;19.70;77.20;;;;;;5032087;28;20219;-70
2022/09/21 04:57:21;;;;;;;22.00;3.97;;;19.60;77.50;;;;;;5026554;28;20299;-69
2022/09/21 04:59:48;;;;;;;21.17;4.40;;;19.50;77.60;;;;;;5025694;28;20192;-70
2022/09/21 05:02:15;;;;;;;27.57;4.77;;;19.60;77.60;;;;;;5028849;28;20180;-71
2022/09/21 05:04:43;;;;;;;29.83;4.40;;;19.50;77.80;;;;;;5024410;28;20761;-68
2022/09/21 05:07:10;;;;;;;23.37;4.23;;;19.40;78.10;;;;;;5028533;28;20228;-67
2022/09/21 05:12:23;;;;;;;21.53;3.80;;;19.40;78.40;;;;;;5030759;28;20288;-72
2022/09/21 05:14:50;;;;;;;32.97;4.17;;;19.40;78.50;;;;;;5026158;28;20617;-67
2022/09/21 05:17:21;;;;;;;23.30;4.40;;;19.30;78.70;;;;;;5030275;28;20279;-68
2022/09/21 05:19:49;;;;;;;24.27;4.70;;;19.30;78.80;;;;;;5031058;28;20259;-69
2022/09/21 05:22:17;;;;;;;26.70;4.23;;;19.30;78.90;;;;;;5031078;28;20243;-68
2022/09/21 05:24:47;;;;;;;23.60;4.00;;;19.20;79.30;;;;;;5027715;28;20180;-67
2022/09/21 05:27:14;;;;;;;20.33;4.57;;;19.20;79.30;;;;;;5029746;28;20548;-68
2022/09/21 05:29:42;;;;;;;20.90;4.07;;;19.10;79.90;;;;;;5030321;28;20187;-67
2022/09/21 05:32:22;;;;;;;27.87;4.43;;;19.20;80.00;;;;;;5029543;28;20203;-70
2022/09/21 05:35:10;;;;;;;19.83;4.00;;;19.20;79.90;;;;;;5026890;28;20297;-68
2022/09/21 05:38:08;;;;;;;19.77;3.97;;;19.20;79.70;;;;;;5028741;28;20204;-67
2022/09/21 05:40:36;;;;;;;22.50;4.73;;;19.20;79.70;;;;;;5027639;28;20195;-70
2022/09/21 05:43:03;;;;;;;19.63;4.20;;;19.10;79.70;;;;;;5029521;28;20238;-65
2022/09/21 05:45:31;;;;;;;27.60;4.60;;;19.10;79.80;;;;;;5029075;28;20180;-68
2022/09/21 05:48:29;;;;;;;18.47;4.50;;;19.10;79.80;;;;;;5023578;28;20196;-67
2022/09/21 05:51:01;;;;;;;24.87;4.27;;;19.00;80.10;;;;;;5029867;28;20207;-67
2022/09/21 05:53:58;;;;;;;22.23;4.80;;;19.10;80.20;;;;;;5029057;28;20234;-68
2022/09/21 05:56:55;;;;;;;20.43;5.07;;;19.00;80.30;;;;;;5026973;28;20267;-68
2022/09/21 05:59:28;;;;;;;26.33;5.00;;;19.00;80.40;;;;;;5029635;28;20203;-68
2022/09/21 06:02:22;;;;;;;26.93;5.20;;;19.10;80.40;;;;;;5034153;28;20196;-67
2022/09/21 06:04:53;;;;;;;25.80;5.20;;;19.00;80.30;;;;;;5048827;28;20556;-68
2022/09/21 06:07:20;;;;;;;18.87;3.97;;;19.00;80.50;;;;;;5032333;28;20587;-68
2022/09/21 06:09:47;;;;;;;23.97;5.40;;;19.00;80.10;;;;;;5032719;28;20195;-68
2022/09/21 06:12:15;;;;;;;25.67;5.20;;;19.00;80.10;;;;;;5034663;28;20180;-68
2022/09/21 06:14:43;;;;;;;30.40;5.03;;;19.00;80.10;;;;;;5033405;28;20204;-68
2022/09/21 06:17:10;;;;;;;23.83;4.43;;;19.00;79.90;;;;;;5033877;28;20181;-72
2022/09/21 06:19:38;;;;;;;20.47;4.43;;;19.00;79.90;;;;;;5033912;28;20958;-66
2022/09/21 06:22:05;;;;;;;30.03;4.87;;;19.00;80.00;;;;;;5034541;28;20184;-66
2022/09/21 06:24:32;;;;;;;30.20;5.37;;;18.90;80.20;;;;;;5034206;28;20670;-66
2022/09/21 06:27:00;;;;;;;28.50;4.83;;;19.00;80.10;;;;;;5031718;28;20259;-67
2022/09/21 06:29:27;;;;;;;26.80;4.93;;;19.00;80.10;;;;;;5033934;28;20267;-67
2022/09/21 06:31:54;;;;;;;23.97;5.80;;;18.90;80.00;;;;;;5032197;28;20592;-67
2022/09/21 06:34:22;;;;;;;26.93;4.63;;;19.00;80.00;;;;;;5032720;28;20212;-67
2022/09/21 06:36:49;;;;;;;24.67;5.83;;;19.00;79.80;;;;;;5030821;28;20227;-67
2022/09/21 06:39:17;;;;;;;28.70;4.83;;;19.00;79.80;;;;;;5031570;28;20544;-68
2022/09/21 06:41:44;;;;;;;30.07;4.70;;;19.00;79.90;;;;;;5032498;28;20177;-66
2022/09/21 06:44:11;;;;;;;22.73;4.33;;;19.00;80.00;;;;;;5033484;28;20188;-67
2022/09/21 06:46:39;;;;;;;22.47;4.30;;;18.90;80.00;;;;;;5032012;28;20664;-65
2022/09/21 06:49:17;;;;;;;25.67;4.57;;;18.90;80.00;;;;;;5033953;28;20220;-67
2022/09/21 06:52:10;;;;;;;18.47;4.47;;;18.90;79.90;;;;;;5033694;28;20207;-66
2022/09/21 06:54:52;;;;;;;19.07;3.87;;;18.90;79.80;;;;;;5031831;28;20697;-67
2022/09/21 06:57:31;;;;;;;23.37;4.87;;;18.90;79.90;;;;;;5021796;28;20176;-66
2022/09/21 07:00:12;;;;;;;21.67;5.10;;;18.80;80.00;;;;;;5033094;28;20196;-68
2022/09/21 07:02:48;;;;;;;24.07;4.97;;;18.80;80.20;;;;;;5030924;28;20519;-67
2022/09/21 07:05:16;;;;;;;21.93;4.37;;;18.80;80.20;;;;;;5030260;28;20196;-67
2022/09/21 07:07:43;;;;;;;21.23;4.60;;;18.80;80.20;;;;;;5029669;28;21010;-69
2022/09/21 07:10:11;;;;;;;30.07;4.60;;;18.80;80.30;;;;;;5025408;28;20713;-67
2022/09/21 07:12:38;;;;;;;25.33;4.80;;;18.80;80.20;;;;;;5034075;28;20256;-67
2022/09/21 07:15:08;;;;;;;27.60;4.67;;;18.80;80.20;;;;;;5022243;28;20228;-68
2022/09/21 07:17:37;;;;;;;23.27;4.17;;;18.80;80.00;;;;;;5025725;28;20636;-68
2022/09/21 07:20:06;;;;;;;30.47;4.60;;;18.80;80.00;;;;;;5032791;28;20183;-73
2022/09/21 07:22:34;;;;;;;20.60;4.97;;;18.80;80.20;;;;;;5033010;28;20176;-67
2022/09/21 07:25:03;;;;;;;24.80;5.20;;;18.80;80.20;;;;;;5033944;28;20631;-70
2022/09/21 07:27:32;;;;;;;27.07;4.77;;;18.80;80.40;;;;;;5033501;28;20180;-68
2022/09/21 07:29:59;;;;;;;22.43;4.83;;;18.80;80.40;;;;;;5026868;28;20176;-69
2022/09/21 07:32:27;;;;;;;22.30;4.43;;;18.80;80.10;;;;;;5032986;28;20177;-72
2022/09/21 07:34:55;;;;;;;29.10;5.00;;;18.80;80.00;;;;;;5032362;28;20577;-71
2022/09/21 07:37:27;;;;;;;25.07;5.07;;;18.70;80.20;;;;;;5032508;28;20184;-70
2022/09/21 07:39:55;;;;;;;25.63;5.07;;;18.80;80.20;;;;;;5029266;28;20184;-68
2022/09/21 07:42:24;;;;;;;21.47;4.27;;;18.80;80.40;;;;;;5033382;28;20279;-69
2022/09/21 07:44:53;;;;;;;26.97;4.60;;;18.80;80.50;;;;;;5031155;28;20221;-70
2022/09/21 07:47:20;;;;;;;26.03;5.30;;;18.80;80.60;;;;;;5029013;28;20263;-68
2022/09/21 07:49:47;;;;;;;30.73;6.00;;;18.70;80.70;;;;;;5033705;28;20250;-68
2022/09/21 07:52:15;;;;;;;26.97;4.27;;;18.70;80.80;;;;;;5027879;28;20191;-68
2022/09/21 07:54:42;;;;;;;24.37;5.50;;;18.70;80.60;;;;;;5026394;28;20208;-69
2022/09/21 07:59:58;;;;;;;26.23;5.03;;;18.70;80.90;;;;;;5020171;28;20545;-68
2022/09/21 08:02:25;;;;;;;23.57;5.03;;;18.70;80.90;;;;;;5031760;28;20242;-68
2022/09/21 08:04:53;;;;;;;19.63;4.40;;;18.70;81.00;;;;;;5032506;28;20634;-69
2022/09/21 08:07:21;;;;;;;26.63;4.83;;;18.70;80.80;;;;;;5028929;28;20247;-69
2022/09/21 08:09:50;;;;;;;21.90;4.87;;;18.60;80.90;;;;;;5031490;28;20202;-68
2022/09/21 08:12:19;;;;;;;24.37;4.40;;;18.60;81.00;;;;;;5033213;28;20184;-69
2022/09/21 08:14:47;;;;;;;23.00;5.77;;;18.70;81.30;;;;;;5029439;28;20228;-68
2022/09/21 08:17:15;;;;;;;22.37;4.13;;;18.60;81.20;;;;;;5032111;28;20188;-69
2022/09/21 08:19:42;;;;;;;33.57;5.37;;;18.60;81.30;;;;;;5031119;28;20195;-67
2022/09/21 08:22:11;;;;;;;30.47;5.97;;;18.60;81.40;;;;;;5032759;28;20267;-69
2022/09/21 08:24:43;;;;;;;27.87;5.20;;;18.60;81.40;;;;;;5032762;28;20200;-68
2022/09/21 08:27:11;;;;;;;29.27;5.00;;;18.50;81.60;;;;;;5033084;28;20626;-67
2022/09/21 08:29:38;;;;;;;32.60;5.40;;;18.60;81.60;;;;;;5032456;28;20202;-67
2022/09/21 08:32:06;;;;;;;22.67;4.47;;;18.60;81.70;;;;;;5039669;28;20209;-68
2022/09/21 08:34:33;;;;;;;25.17;5.30;;;18.50;81.40;;;;;;5039888;28;20278;-67
2022/09/21 08:37:01;;;;;;;20.60;5.10;;;18.60;81.40;;;;;;5027972;28;20241;-68
2022/09/21 08:39:28;;;;;;;26.40;5.40;;;18.60;81.30;;;;;;5031696;28;20264;-69
2022/09/21 08:42:04;;;;;;;26.27;5.03;;;18.60;81.40;;;;;;5032625;28;20270;-68
2022/09/21 08:45:00;;;;;;;19.40;4.73;;;18.60;81.40;;;;;;5023115;28;20184;-67
2022/09/21 08:47:47;;;;;;;24.43;4.70;;;18.50;81.30;;;;;;5030281;28;20184;-69
2022/09/21 08:50:33;;;;;;;29.67;5.40;;;18.50;81.30;;;;;;5032727;28;20609;-69
2022/09/21 08:53:17;;;;;;;24.07;5.07;;;18.50;81.40;;;;;;5032407;28;20188;-68
2022/09/21 08:55:45;;;;;;;25.47;5.20;;;18.50;81.40;;;;;;5032392;28;20188;-71
2022/09/21 08:58:24;;;;;;;32.00;5.97;;;18.50;81.50;;;;;;5031595;28;20176;-67
2022/09/21 09:01:04;;;;;;;23.70;5.03;;;18.50;81.60;;;;;;5031327;28;20175;-69
2022/09/21 09:03:34;;;;;;;28.53;5.13;;;18.40;81.70;;;;;;5032449;28;20635;-69
2022/09/21 09:06:09;;;;;;;28.17;5.17;;;18.40;81.80;;;;;;5032056;28;20223;-68
2022/09/21 09:08:52;;;;;;;27.90;5.23;;;18.50;81.70;;;;;;5031942;28;20182;-68
2022/09/21 09:11:22;;;;;;;30.33;5.43;;;18.50;81.80;;;;;;5028016;28;20254;-68
2022/09/21 09:14:20;;;;;;;22.77;4.63;;;18.40;82.00;;;;;;5031819;28;20196;-69
2022/09/21 09:17:08;;;;;;;33.80;5.77;;;18.40;82.00;;;;;;5031941;28;20184;-69
2022/09/21 09:19:49;;;;;;;38.93;6.10;;;18.40;82.00;;;;;;5029150;28;20184;-67
2022/09/21 09:22:24;;;;;;;28.90;5.03;;;18.40;82.00;;;;;;5025704;28;21038;-67
2022/09/21 09:24:57;;;;;;;35.30;5.70;;;18.40;82.00;;;;;;5019491;28;20255;-67
2022/09/21 09:27:41;;;;;;;23.83;5.77;;;18.40;82.00;;;;;;5021140;28;20185;-67
2022/09/21 09:30:22;;;;;;;33.17;6.07;;;18.30;82.10;;;;;;5027027;28;20213;-68
2022/09/21 09:33:10;;;;;;;25.23;5.50;;;18.40;82.10;;;;;;5040799;28;20168;-71
2022/09/21 09:35:51;;;;;;;32.53;5.10;;;18.30;82.10;;;;;;5036354;28;20663;-67
2022/09/21 09:38:45;;;;;;;24.57;5.03;;;18.40;82.30;;;;;;5035785;28;20176;-66
2022/09/21 09:41:23;;;;;;;28.57;4.93;;;18.30;82.20;;;;;;5030803;28;20656;-68
2022/09/21 09:44:08;;;;;;;24.00;5.30;;;18.30;82.20;;;;;;5036099;28;20191;-69
2022/09/21 09:47:26;;;;;;;34.37;6.17;;;18.30;82.30;;;;;;5031887;28;20244;-72
2022/09/21 09:50:04;;;;;;;28.30;5.47;;;18.30;82.40;;;;;;5008828;28;20529;-70
2022/09/21 09:52:33;;;;;;;25.40;5.83;;;18.30;82.30;;;;;;5028940;28;20238;-68
2022/09/21 09:55:21;;;;;;;26.73;5.53;;;18.30;82.50;;;;;;5035432;28;20308;-69
2022/09/21 09:57:49;;;;;;;27.27;5.37;;;18.30;82.50;;;;;;5036073;28;20268;-69
2022/09/21 10:00:20;;;;;;;29.83;5.57;;;18.30;82.50;;;;;;5035211;28;20191;-67
2022/09/21 10:02:57;;;;;;;27.50;5.43;;;18.30;82.60;;;;;;5035940;28;20173;-69
2022/09/21 10:05:37;;;;;;;20.80;5.00;;;18.30;82.70;;;;;;5035669;28;20195;-68
2022/09/21 10:08:05;;;;;;;25.57;5.43;;;18.30;82.70;;;;;;5035385;28;20200;-67
2022/09/21 10:10:43;;;;;;;27.63;6.27;;;18.20;82.70;;;;;;5035092;28;20180;-68
2022/09/21 10:13:11;;;;;;;26.10;5.53;;;18.20;82.70;;;;;;5035388;28;20191;-69
2022/09/21 10:16:04;;;;;;;33.63;6.50;;;18.20;82.70;;;;;;5034373;28;20309;-67
2022/09/21 10:18:55;;;;;;;32.93;5.90;;;18.30;82.70;;;;;;5024219;28;20208;-68
2022/09/21 10:21:32;;;;;;;23.57;5.23;;;18.30;82.60;;;;;;5035691;28;20180;-68
2022/09/21 10:24:03;;;;;;;24.07;5.97;;;18.30;82.60;;;;;;5035191;28;20263;-68
2022/09/21 10:26:53;;;;;;;30.00;5.30;;;18.30;82.50;;;;;;5034933;28;20176;-68
2022/09/21 10:29:24;;;;;;;28.13;5.40;;;18.30;82.30;;;;;;5034632;28;20654;-71
2022/09/21 10:32:17;;;;;;;27.13;5.73;;;18.30;82.30;;;;;;5035077;28;20199;-69
2022/09/21 10:35:12;;;;;;;35.17;5.27;;;18.30;82.10;;;;;;5034937;28;20216;-68
2022/09/21 10:38:07;;;;;;;27.90;5.37;;;18.30;82.20;;;;;;5025798;28;20188;-68
2022/09/21 10:40:37;;;;;;;23.47;4.83;;;18.30;81.90;;;;;;5034291;28;20643;-67
2022/09/21 10:43:05;;;;;;;28.30;5.97;;;18.30;81.80;;;;;;5034194;28;20643;-68
2022/09/21 10:45:38;;;;;;;27.20;6.10;;;18.20;81.70;;;;;;5032611;28;20229;-69
2022/09/21 10:48:18;;;;;;;22.73;5.20;;;18.30;81.70;;;;;;5032333;28;20216;-68
2022/09/21 10:50:50;;;;;;;32.17;5.57;;;18.20;81.80;;;;;;5022970;28;20176;-68
2022/09/21 10:53:34;;;;;;;24.63;5.67;;;18.20;82.00;;;;;;5034675;28;20173;-68
2022/09/21 10:56:01;;;;;;;34.77;6.10;;;18.20;82.10;;;;;;5034303;28;20834;-68
2022/09/21 10:58:30;;;;;;;22.27;4.80;;;18.20;82.20;;;;;;5033528;28;20233;-68
2022/09/21 11:01:11;;;;;;;25.13;4.63;;;18.20;82.50;;;;;;5033747;28;20662;-67
2022/09/21 11:03:41;;;;;;;25.73;4.97;;;18.10;82.70;;;;;;5034840;28;20184;-69
2022/09/21 11:06:45;;;;;;;26.37;4.87;;;18.20;82.80;;;;;;5034597;28;20394;-68
2022/09/21 11:09:19;;;;;;;23.70;4.57;;;18.20;83.10;;;;;;5023495;28;20196;-71
2022/09/21 11:11:50;;;;;;;21.30;5.17;;;18.20;83.20;;;;;;5034464;28;20179;-68
2022/09/21 11:14:29;;;;;;;24.00;4.63;;;18.20;83.30;;;;;;5030627;28;20303;-68
2022/09/21 11:17:25;;;;;;;24.03;5.30;;;18.10;83.40;;;;;;5024134;28;20187;-67
2022/09/21 11:20:04;;;;;;;21.53;4.57;;;18.10;83.70;;;;;;5033771;28;20234;-69
2022/09/21 11:23:09;;;;;;;30.17;4.70;;;18.10;83.70;;;;;;5033951;28;20204;-67
2022/09/21 11:25:58;;;;;;;25.20;4.40;;;18.20;83.70;;;;;;5026500;28;20537;-68
2022/09/21 11:28:27;;;;;;;24.40;4.97;;;18.10;83.90;;;;;;5025665;28;20266;-68
2022/09/21 11:31:27;;;;;;;20.43;4.93;;;18.10;84.00;;;;;;5024085;28;20622;-67
2022/09/21 11:33:54;;;;;;;21.77;5.07;;;18.10;84.00;;;;;;5002325;28;20224;-67
2022/09/21 11:36:43;;;;;;;24.77;5.03;;;18.10;84.00;;;;;;5033831;28;20182;-67
2022/09/21 11:39:39;;;;;;;27.77;5.30;;;18.10;83.90;;;;;;5032389;28;20246;-68
2022/09/21 11:42:19;;;;;;;22.40;5.17;;;18.10;83.90;;;;;;5032276;28;20181;-68
2022/09/21 11:44:55;;;;;;;23.60;4.90;;;18.00;84.00;;;;;;5033007;28;20180;-68
2022/09/21 11:47:57;;;;;;;18.93;4.43;;;18.10;83.90;;;;;;5032854;28;20186;-67
2022/09/21 11:50:34;;;;;;;27.67;4.33;;;18.00;83.90;;;;;;5031082;28;21366;-67
2022/09/21 11:53:10;;;;;;;19.70;4.67;;;18.00;84.00;;;;;;5028211;28;20184;-68
2022/09/21 11:56:00;;;;;;;21.73;4.87;;;18.00;84.10;;;;;;5028386;28;20660;-67
2022/09/21 11:58:40;;;;;;;21.97;4.30;;;18.10;84.20;;;;;;5026512;28;20168;-67
2022/09/21 12:01:25;;;;;;;28.00;4.23;;;18.00;84.00;;;;;;5032756;28;20743;-67
2022/09/21 12:04:15;;;;;;;21.57;4.70;;;18.00;84.10;;;;;;5033133;28;20650;-67
2022/09/21 12:07:06;;;;;;;22.17;4.57;;;18.00;83.90;;;;;;5004974;28;20219;-67
2022/09/21 12:10:04;;;;;;;22.27;4.97;;;18.00;83.80;;;;;;5018186;28;20177;-67
2022/09/21 12:12:50;;;;;;;20.27;4.17;;;18.00;83.80;;;;;;5032592;28;20176;-67
2022/09/21 12:15:49;;;;;;;17.47;3.90;;;18.00;83.80;;;;;;5024269;28;20324;-67
2022/09/21 12:18:39;;;;;;;18.77;4.23;;;18.00;83.80;;;;;;5025168;28;20188;-67
2022/09/21 12:21:23;;;;;;;28.27;4.43;;;18.00;83.80;;;;;;5032647;28;20183;-68
2022/09/21 12:24:11;;;;;;;18.77;3.67;;;18.00;83.70;;;;;;5032706;28;20195;-68
2022/09/21 12:26:58;;;;;;;18.00;4.40;;;18.00;83.70;;;;;;5032501;28;20165;-69
2022/09/21 12:29:35;;;;;;;18.07;4.03;;;17.90;83.80;;;;;;5032857;28;20303;-67
2022/09/21 12:32:48;;;;;;;18.10;4.30;;;17.90;84.00;;;;;;5032722;28;20191;-68
2022/09/21 12:35:38;;;;;;;23.10;3.60;;;17.90;84.10;;;;;;5006606;28;20220;-68
2022/09/21 12:38:34;;;;;;;22.33;4.70;;;17.90;84.20;;;;;;5032422;28;20638;-69
2022/09/21 12:41:16;;;;;;;25.23;4.87;;;17.80;84.30;;;;;;5032561;28;20188;-68
2022/09/21 12:43:56;;;;;;;24.93;4.80;;;17.80;84.50;;;;;;5022810;28;20306;-69
2022/09/21 12:46:33;;;;;;;22.33;4.53;;;17.80;84.60;;;;;;5031926;28;20288;-68
2022/09/21 12:49:08;;;;;;;16.27;3.70;;;17.70;84.70;;;;;;5027878;28;20211;-69
2022/09/21 12:51:41;;;;;;;23.80;4.90;;;17.70;84.80;;;;;;5029951;28;20671;-70
2022/09/21 12:54:23;;;;;;;18.60;4.50;;;17.70;85.00;;;;;;5032719;28;20562;-71
2022/09/21 12:56:50;;;;;;;28.97;8.87;;;17.60;85.10;;;;;;5032209;28;20183;-68
2022/09/21 12:59:30;;;;;;;23.77;4.80;;;17.60;85.20;;;;;;5030920;28;20183;-72
2022/09/21 13:02:32;;;;;;;23.67;5.33;;;17.50;85.60;;;;;;5032002;28;20624;-69
2022/09/21 13:05:08;;;;;;;19.90;5.30;;;17.50;85.80;;;;;;5032296;28;20736;-68
2022/09/21 13:08:06;;;;;;;15.07;3.87;;;17.50;85.90;;;;;;5030235;28;20702;-69
2022/09/21 13:10:58;;;;;;;18.17;4.53;;;17.40;86.00;;;;;;5022234;28;20188;-69
2022/09/21 13:13:30;;;;;;;21.20;4.20;;;17.30;86.30;;;;;;5032087;28;20266;-69
2022/09/21 13:15:58;;;;;;;20.47;5.20;;;17.30;86.50;;;;;;5029903;28;20184;-70
2022/09/21 13:18:40;;;;;;;15.70;4.23;;;17.40;87.00;;;;;;5032670;28;20659;-68
2022/09/21 13:21:30;;;;;;;18.13;4.63;;;17.40;87.20;;;;;;5032079;28;20208;-68
2022/09/21 13:24:00;;;;;;;22.70;5.20;;;17.40;87.30;;;;;;5032407;28;20180;-68
2022/09/21 13:26:38;;;;;;;20.07;4.40;;;17.40;87.40;;;;;;5032279;28;20643;-69
2022/09/21 13:29:18;;;;;;;18.43;4.50;;;17.40;87.20;;;;;;5023903;28;20544;-69